Regina International Airport
CYQR : now visible

Airfield :











YOU CAN JOIN US ON...

 
LOGIN :

Register | Disclaimer

   EN    FR    IT 

 









Legend :    VFR   Marginal VFR   IFR   Intensive IFR   Very Intensive IFR
Visi :
Ceiling :
>= 8 km
>= 3000ft
5 to 8 km
1000 to 3000 ft
1500m to 5 km
500 to 1000 ft
800 to 1500m
200 to 500 ft
< 800m
< 200 ft
Symbols :   Thunderstorms  Fog  Heavy snow  Heavy precipitations  Wind > 20 kt






- Airport Elevation : 1894 ft
- IATA code : YQR


CYQR - Regina International

CURRENT METAR :
  • 171536Z 14012KT 5/8SM R13/4000VP6000FT/D BR OVC002 M01/M01 A2979 RMK FG6ST2 VIS E 1/2 FZFG SLP117

EXPIRED METARs :
  • 171531Z 14011KT 1/2SM R13/2800VP6000FT/U FZFG VV002 M01/M01 A2979 RMK FG8 VIS E 3/8 SLP119
  • 171500Z 13011KT 3/8SM R13/2600FT/N FZFG VV003 M01/M02 A2980 RMK FG8 SLP120
  • 171422Z 14010KT 1/4SM R13/2200V3000FT/N FZFG VV002 M01/M01 A2981 RMK FG8 SLP126
  • 171400Z 15011KT 3/8SM R13/2800FT/N FZFG VV002 M01/M01 A2982 RMK FG8 SLP129
  • 171300Z 16009KT 3/8SM R13/3000V4000FT/D FZFG VV002 M01/M01 A2985 RMK FG8 SLP139
  • 171249Z 16008KT 3/8SM R13/4000FT/D FZFG VV002 M01/M01 A2986 RMK FG8 PRESFR SLP141

TAF AMD TAF CYQR
Valid from the 17 at 14:00 until the 18 at 12:00 UTC


171421Z 1714/1812 15010KT 1/4SM FZFG VV002
TEMPO 1714/1716 3SM BR OVC005
FM171600 15012KT P6SM SCT006 SCT140
TEMPO 1716/1718 2SM BR BKN004
FM171800 16012KT P6SM SCT120 BKN240
FM172100 20010KT P6SM BKN080 BKN120
FM181000 28018G28KT P6SM BKN030
TEMPO 1810/1812 P6SM -SHRA OVC012 RMK NXT FCST BY 171800Z



MET'MAP, your aeronautical weather chart ! - Copyright ORBIFLY December 2007 - Disclaimer

ORBIFLY MET'MAP TEAM :

Programming & Development : Alexandra Zaïnal
Concept & Development : Baudouin d'Aumeries
Co-Development & Prog : Marc-Olivier Méhu
Technical & hardware support : Manuel Goepfert

Contact : metmap@orbifly.com




SOURCES & CREDITS :

   NOAA       Earth
Advisory